sensor_id;sensor_type;location;lat;lon;timestamp;temperature;humidity
22035;DHT22;11181;51.002;4.356;2024-02-16T00:01:51;15.30;99.90
22035;DHT22;11181;51.002;4.356;2024-02-16T00:04:17;15.30;99.90
22035;DHT22;11181;51.002;4.356;2024-02-16T00:06:44;15.40;99.90
22035;DHT22;11181;51.002;4.356;2024-02-16T00:09:11;15.40;99.90
22035;DHT22;11181;51.002;4.356;2024-02-16T00:11:39;15.50;99.90
22035;DHT22;11181;51.002;4.356;2024-02-16T00:14:05;15.50;99.90
22035;DHT22;11181;51.002;4.356;2024-02-16T00:16:32;15.60;99.90
22035;DHT22;11181;51.002;4.356;2024-02-16T00:19:01;15.70;99.90
22035;DHT22;11181;51.002;4.356;2024-02-16T00:21:28;15.70;99.90
22035;DHT22;11181;51.002;4.356;2024-02-16T00:23:55;15.70;99.90
22035;DHT22;11181;51.002;4.356;2024-02-16T00:26:22;15.80;99.90
22035;DHT22;11181;51.002;4.356;2024-02-16T00:28:49;15.60;99.90
22035;DHT22;11181;51.002;4.356;2024-02-16T00:31:15;15.70;99.90
22035;DHT22;11181;51.002;4.356;2024-02-16T00:33:42;15.70;99.90
22035;DHT22;11181;51.002;4.356;2024-02-16T00:36:10;15.70;99.90
22035;DHT22;11181;51.002;4.356;2024-02-16T00:38:37;15.70;99.90
22035;DHT22;11181;51.002;4.356;2024-02-16T00:41:04;15.70;99.90
22035;DHT22;11181;51.002;4.356;2024-02-16T00:43:32;15.70;99.90
22035;DHT22;11181;51.002;4.356;2024-02-16T00:45:59;15.80;99.90
22035;DHT22;11181;51.002;4.356;2024-02-16T00:48:26;15.70;99.90
22035;DHT22;11181;51.002;4.356;2024-02-16T00:50:53;15.80;99.90
22035;DHT22;11181;51.002;4.356;2024-02-16T00:53:21;15.80;99.90
22035;DHT22;11181;51.002;4.356;2024-02-16T00:55:48;15.90;99.90
22035;DHT22;11181;51.002;4.356;2024-02-16T00:58:15;16.00;99.90
22035;DHT22;11181;51.002;4.356;2024-02-16T01:00:42;16.00;99.90
22035;DHT22;11181;51.002;4.356;2024-02-16T01:03:09;16.10;99.90
22035;DHT22;11181;51.002;4.356;2024-02-16T01:05:39;16.10;99.90
22035;DHT22;11181;51.002;4.356;2024-02-16T01:08:06;16.20;99.90
22035;DHT22;11181;51.002;4.356;2024-02-16T01:10:35;16.20;99.90
22035;DHT22;11181;51.002;4.356;2024-02-16T01:13:01;16.20;99.90
22035;DHT22;11181;51.002;4.356;2024-02-16T01:15:29;16.20;99.90
22035;DHT22;11181;51.002;4.356;2024-02-16T01:17:56;16.20;99.90
22035;DHT22;11181;51.002;4.356;2024-02-16T01:20:25;16.20;99.90
22035;DHT22;11181;51.002;4.356;2024-02-16T01:22:56;16.10;99.90
22035;DHT22;11181;51.002;4.356;2024-02-16T01:25:23;16.10;99.90
22035;DHT22;11181;51.002;4.356;2024-02-16T01:27:51;16.20;99.90
22035;DHT22;11181;51.002;4.356;2024-02-16T01:30:18;16.20;99.90
22035;DHT22;11181;51.002;4.356;2024-02-16T01:32:45;16.20;99.90
22035;DHT22;11181;51.002;4.356;2024-02-16T01:35:12;16.20;99.90
22035;DHT22;11181;51.002;4.356;2024-02-16T01:37:40;16.10;99.90
22035;DHT22;11181;51.002;4.356;2024-02-16T01:40:08;16.00;99.90
22035;DHT22;11181;51.002;4.356;2024-02-16T01:42:39;15.90;99.90
22035;DHT22;11181;51.002;4.356;2024-02-16T01:45:08;15.80;99.90
22035;DHT22;11181;51.002;4.356;2024-02-16T01:47:35;15.80;99.90
22035;DHT22;11181;51.002;4.356;2024-02-16T01:50:03;15.70;99.90
22035;DHT22;11181;51.002;4.356;2024-02-16T01:52:31;15.60;99.90
22035;DHT22;11181;51.002;4.356;2024-02-16T01:54:59;15.50;99.90
22035;DHT22;11181;51.002;4.356;2024-02-16T01:57:28;15.40;99.90
22035;DHT22;11181;51.002;4.356;2024-02-16T01:59:55;15.40;99.90
22035;DHT22;11181;51.002;4.356;2024-02-16T02:02:23;15.40;99.90
22035;DHT22;11181;51.002;4.356;2024-02-16T02:04:50;15.50;99.90
22035;DHT22;11181;51.002;4.356;2024-02-16T02:07:17;15.50;99.90
22035;DHT22;11181;51.002;4.356;2024-02-16T02:09:44;15.50;99.90
22035;DHT22;11181;51.002;4.356;2024-02-16T02:12:11;15.50;99.90
22035;DHT22;11181;51.002;4.356;2024-02-16T02:14:38;15.50;99.90
22035;DHT22;11181;51.002;4.356;2024-02-16T02:17:05;15.40;99.90
22035;DHT22;11181;51.002;4.356;2024-02-16T02:19:33;15.40;99.90
22035;DHT22;11181;51.002;4.356;2024-02-16T02:22:00;15.30;99.90
22035;DHT22;11181;51.002;4.356;2024-02-16T02:24:28;15.30;99.90
22035;DHT22;11181;51.002;4.356;2024-02-16T02:26:55;15.20;99.90
22035;DHT22;11181;51.002;4.356;2024-02-16T02:29:23;15.20;99.90
22035;DHT22;11181;51.002;4.356;2024-02-16T02:31:49;15.30;99.90
22035;DHT22;11181;51.002;4.356;2024-02-16T02:34:16;15.30;99.90
22035;DHT22;11181;51.002;4.356;2024-02-16T02:36:43;15.30;99.90
22035;DHT22;11181;51.002;4.356;2024-02-16T02:39:10;15.20;99.90
22035;DHT22;11181;51.002;4.356;2024-02-16T02:41:40;15.30;99.90
22035;DHT22;11181;51.002;4.356;2024-02-16T02:44:07;15.30;99.90
22035;DHT22;11181;51.002;4.356;2024-02-16T02:46:35;15.20;99.90
22035;DHT22;11181;51.002;4.356;2024-02-16T02:49:02;15.30;99.90
22035;DHT22;11181;51.002;4.356;2024-02-16T02:51:29;15.20;99.90
22035;DHT22;11181;51.002;4.356;2024-02-16T02:53:56;15.10;99.90
22035;DHT22;11181;51.002;4.356;2024-02-16T02:56:23;15.00;99.90
22035;DHT22;11181;51.002;4.356;2024-02-16T02:58:51;15.00;99.90
22035;DHT22;11181;51.002;4.356;2024-02-16T03:01:18;15.00;99.90
22035;DHT22;11181;51.002;4.356;2024-02-16T03:03:47;15.00;99.90
22035;DHT22;11181;51.002;4.356;2024-02-16T03:06:17;15.10;99.90
22035;DHT22;11181;51.002;4.356;2024-02-16T03:08:44;15.10;99.90
22035;DHT22;11181;51.002;4.356;2024-02-16T03:11:11;15.20;99.90
22035;DHT22;11181;51.002;4.356;2024-02-16T03:13:38;15.30;99.90
22035;DHT22;11181;51.002;4.356;2024-02-16T03:16:07;15.30;99.90
22035;DHT22;11181;51.002;4.356;2024-02-16T03:18:34;15.30;99.90
22035;DHT22;11181;51.002;4.356;2024-02-16T03:21:01;15.20;99.90
22035;DHT22;11181;51.002;4.356;2024-02-16T03:23:28;15.20;99.90
22035;DHT22;11181;51.002;4.356;2024-02-16T03:25:55;15.20;99.90
22035;DHT22;11181;51.002;4.356;2024-02-16T03:28:22;15.20;99.90
22035;DHT22;11181;51.002;4.356;2024-02-16T03:30:48;15.20;99.90
22035;DHT22;11181;51.002;4.356;2024-02-16T03:33:17;15.20;99.90
22035;DHT22;11181;51.002;4.356;2024-02-16T03:35:44;15.20;99.90
22035;DHT22;11181;51.002;4.356;2024-02-16T03:38:11;15.30;99.90
22035;DHT22;11181;51.002;4.356;2024-02-16T03:40:38;15.20;99.90
22035;DHT22;11181;51.002;4.356;2024-02-16T03:43:05;15.20;99.90
22035;DHT22;11181;51.002;4.356;2024-02-16T03:45:32;15.20;99.90
22035;DHT22;11181;51.002;4.356;2024-02-16T03:47:59;15.20;99.90
22035;DHT22;11181;51.002;4.356;2024-02-16T03:50:27;15.30;99.90
22035;DHT22;11181;51.002;4.356;2024-02-16T03:52:54;15.30;99.90
22035;DHT22;11181;51.002;4.356;2024-02-16T03:55:21;15.30;99.90
22035;DHT22;11181;51.002;4.356;2024-02-16T03:57:48;15.50;99.90
22035;DHT22;11181;51.002;4.356;2024-02-16T04:00:15;15.50;99.90
22035;DHT22;11181;51.002;4.356;2024-02-16T04:02:51;15.60;99.90
22035;DHT22;11181;51.002;4.356;2024-02-16T04:05:18;15.70;99.90
22035;DHT22;11181;51.002;4.356;2024-02-16T04:07:46;15.70;99.90
22035;DHT22;11181;51.002;4.356;2024-02-16T04:10:13;15.70;99.90
22035;DHT22;11181;51.002;4.356;2024-02-16T04:12:40;15.70;99.90
22035;DHT22;11181;51.002;4.356;2024-02-16T04:15:07;15.70;99.90
22035;DHT22;11181;51.002;4.356;2024-02-16T04:17:34;15.70;99.90
22035;DHT22;11181;51.002;4.356;2024-02-16T04:20:00;15.70;99.90
22035;DHT22;11181;51.002;4.356;2024-02-16T04:22:28;15.70;99.90
22035;DHT22;11181;51.002;4.356;2024-02-16T04:24:57;15.70;99.90
22035;DHT22;11181;51.002;4.356;2024-02-16T04:27:24;15.80;99.90
22035;DHT22;11181;51.002;4.356;2024-02-16T04:29:51;15.80;99.90
22035;DHT22;11181;51.002;4.356;2024-02-16T04:32:18;15.90;99.90
22035;DHT22;11181;51.002;4.356;2024-02-16T04:34:45;15.90;99.90
22035;DHT22;11181;51.002;4.356;2024-02-16T04:37:12;15.90;99.90
22035;DHT22;11181;51.002;4.356;2024-02-16T04:39:40;15.80;99.90
22035;DHT22;11181;51.002;4.356;2024-02-16T04:42:08;15.70;99.90
22035;DHT22;11181;51.002;4.356;2024-02-16T04:44:36;15.60;99.90
22035;DHT22;11181;51.002;4.356;2024-02-16T04:47:05;15.50;99.90
22035;DHT22;11181;51.002;4.356;2024-02-16T04:49:31;15.50;99.90
22035;DHT22;11181;51.002;4.356;2024-02-16T04:51:58;15.50;99.90
22035;DHT22;11181;51.002;4.356;2024-02-16T04:54:25;15.60;99.90
22035;DHT22;11181;51.002;4.356;2024-02-16T04:56:52;15.50;99.90
22035;DHT22;11181;51.002;4.356;2024-02-16T04:59:20;15.50;99.90
22035;DHT22;11181;51.002;4.356;2024-02-16T05:01:47;15.50;99.90
22035;DHT22;11181;51.002;4.356;2024-02-16T05:04:14;15.60;99.90
22035;DHT22;11181;51.002;4.356;2024-02-16T05:06:42;15.50;99.90
22035;DHT22;11181;51.002;4.356;2024-02-16T05:09:11;15.40;99.90
22035;DHT22;11181;51.002;4.356;2024-02-16T05:11:39;15.50;99.90
22035;DHT22;11181;51.002;4.356;2024-02-16T05:14:06;15.40;99.90
22035;DHT22;11181;51.002;4.356;2024-02-16T05:16:34;15.40;99.90
22035;DHT22;11181;51.002;4.356;2024-02-16T05:19:02;15.50;99.90
22035;DHT22;11181;51.002;4.356;2024-02-16T05:21:29;15.50;99.90
22035;DHT22;11181;51.002;4.356;2024-02-16T05:23:55;15.50;99.90
22035;DHT22;11181;51.002;4.356;2024-02-16T05:26:22;15.40;99.90
22035;DHT22;11181;51.002;4.356;2024-02-16T05:28:49;15.40;99.90
22035;DHT22;11181;51.002;4.356;2024-02-16T05:31:17;15.30;99.90
22035;DHT22;11181;51.002;4.356;2024-02-16T05:33:47;15.30;99.90
22035;DHT22;11181;51.002;4.356;2024-02-16T05:36:16;15.20;99.90
22035;DHT22;11181;51.002;4.356;2024-02-16T05:38:43;15.30;99.90
22035;DHT22;11181;51.002;4.356;2024-02-16T05:41:10;15.30;99.90
22035;DHT22;11181;51.002;4.356;2024-02-16T05:43:37;15.20;99.90
22035;DHT22;11181;51.002;4.356;2024-02-16T05:46:04;15.20;99.90
22035;DHT22;11181;51.002;4.356;2024-02-16T05:48:32;15.20;99.90
22035;DHT22;11181;51.002;4.356;2024-02-16T05:51:02;15.20;99.90
22035;DHT22;11181;51.002;4.356;2024-02-16T05:53:29;15.20;99.90
22035;DHT22;11181;51.002;4.356;2024-02-16T05:55:55;15.20;99.90
22035;DHT22;11181;51.002;4.356;2024-02-16T05:58:23;15.30;99.90
22035;DHT22;11181;51.002;4.356;2024-02-16T06:00:50;15.30;99.90
22035;DHT22;11181;51.002;4.356;2024-02-16T06:03:17;15.40;99.90
22035;DHT22;11181;51.002;4.356;2024-02-16T06:05:44;15.40;99.90
22035;DHT22;11181;51.002;4.356;2024-02-16T06:08:12;15.30;99.90
22035;DHT22;11181;51.002;4.356;2024-02-16T06:10:41;15.20;99.90
22035;DHT22;11181;51.002;4.356;2024-02-16T06:13:08;15.20;99.90
22035;DHT22;11181;51.002;4.356;2024-02-16T06:15:35;15.00;99.90
22035;DHT22;11181;51.002;4.356;2024-02-16T06:18:03;15.10;99.90
22035;DHT22;11181;51.002;4.356;2024-02-16T06:20:29;15.20;99.90
22035;DHT22;11181;51.002;4.356;2024-02-16T06:22:56;15.10;99.90
22035;DHT22;11181;51.002;4.356;2024-02-16T06:25:24;15.10;99.90
22035;DHT22;11181;51.002;4.356;2024-02-16T06:27:51;15.20;99.90
22035;DHT22;11181;51.002;4.356;2024-02-16T06:30:18;15.20;99.90
22035;DHT22;11181;51.002;4.356;2024-02-16T06:32:45;15.20;99.90
22035;DHT22;11181;51.002;4.356;2024-02-16T06:35:13;15.10;99.90
22035;DHT22;11181;51.002;4.356;2024-02-16T06:37:40;15.10;99.90
22035;DHT22;11181;51.002;4.356;2024-02-16T06:40:07;15.10;99.90
22035;DHT22;11181;51.002;4.356;2024-02-16T06:42:37;15.00;99.90
22035;DHT22;11181;51.002;4.356;2024-02-16T06:45:05;15.10;99.90
22035;DHT22;11181;51.002;4.356;2024-02-16T06:47:32;15.20;99.90
22035;DHT22;11181;51.002;4.356;2024-02-16T06:49:59;15.10;99.90
22035;DHT22;11181;51.002;4.356;2024-02-16T06:52:26;15.20;99.90
22035;DHT22;11181;51.002;4.356;2024-02-16T06:54:54;15.20;99.90
22035;DHT22;11181;51.002;4.356;2024-02-16T06:57:21;15.20;99.90
22035;DHT22;11181;51.002;4.356;2024-02-16T06:59:49;15.10;99.90
22035;DHT22;11181;51.002;4.356;2024-02-16T07:02:18;15.00;99.90
22035;DHT22;11181;51.002;4.356;2024-02-16T07:04:46;15.00;99.90
22035;DHT22;11181;51.002;4.356;2024-02-16T07:07:13;15.00;99.90
22035;DHT22;11181;51.002;4.356;2024-02-16T07:09:40;15.00;99.90
22035;DHT22;11181;51.002;4.356;2024-02-16T07:12:08;15.10;99.90
22035;DHT22;11181;51.002;4.356;2024-02-16T07:14:35;15.10;99.90
22035;DHT22;11181;51.002;4.356;2024-02-16T07:17:03;15.20;99.90
22035;DHT22;11181;51.002;4.356;2024-02-16T07:19:35;15.10;99.90
22035;DHT22;11181;51.002;4.356;2024-02-16T07:22:02;15.10;99.90
22035;DHT22;11181;51.002;4.356;2024-02-16T07:24:29;15.00;99.90
22035;DHT22;11181;51.002;4.356;2024-02-16T07:26:56;15.00;99.90
22035;DHT22;11181;51.002;4.356;2024-02-16T07:29:24;15.00;99.90
22035;DHT22;11181;51.002;4.356;2024-02-16T07:31:50;15.10;99.90
22035;DHT22;11181;51.002;4.356;2024-02-16T07:34:19;15.10;99.90
22035;DHT22;11181;51.002;4.356;2024-02-16T07:36:46;15.20;99.90
22035;DHT22;11181;51.002;4.356;2024-02-16T07:39:13;15.10;99.90
22035;DHT22;11181;51.002;4.356;2024-02-16T07:41:40;15.10;99.90
22035;DHT22;11181;51.002;4.356;2024-02-16T07:44:07;15.10;99.90
22035;DHT22;11181;51.002;4.356;2024-02-16T07:46:40;15.10;99.90
22035;DHT22;11181;51.002;4.356;2024-02-16T07:49:07;15.10;99.90
22035;DHT22;11181;51.002;4.356;2024-02-16T07:51:37;15.10;99.90
22035;DHT22;11181;51.002;4.356;2024-02-16T07:54:05;14.90;99.90
22035;DHT22;11181;51.002;4.356;2024-02-16T07:56:33;14.90;99.90
22035;DHT22;11181;51.002;4.356;2024-02-16T07:59:00;15.00;99.90
22035;DHT22;11181;51.002;4.356;2024-02-16T08:01:27;15.00;99.90
22035;DHT22;11181;51.002;4.356;2024-02-16T08:03:54;15.10;99.90
22035;DHT22;11181;51.002;4.356;2024-02-16T08:06:25;15.00;99.90
22035;DHT22;11181;51.002;4.356;2024-02-16T08:08:54;15.00;99.90
22035;DHT22;11181;51.002;4.356;2024-02-16T08:11:21;15.00;99.90
22035;DHT22;11181;51.002;4.356;2024-02-16T08:13:48;15.00;99.90
22035;DHT22;11181;51.002;4.356;2024-02-16T08:16:15;15.10;99.90
22035;DHT22;11181;51.002;4.356;2024-02-16T08:18:43;15.20;99.90
22035;DHT22;11181;51.002;4.356;2024-02-16T08:21:11;15.20;99.90
22035;DHT22;11181;51.002;4.356;2024-02-16T08:23:37;15.10;99.90
22035;DHT22;11181;51.002;4.356;2024-02-16T08:26:06;15.20;99.90
22035;DHT22;11181;51.002;4.356;2024-02-16T08:28:33;15.10;99.90
22035;DHT22;11181;51.002;4.356;2024-02-16T08:31:00;15.20;99.90
22035;DHT22;11181;51.002;4.356;2024-02-16T08:33:27;15.20;99.90
22035;DHT22;11181;51.002;4.356;2024-02-16T08:35:53;15.30;99.90
22035;DHT22;11181;51.002;4.356;2024-02-16T08:38:20;15.30;99.90
22035;DHT22;11181;51.002;4.356;2024-02-16T08:40:47;15.40;99.90
22035;DHT22;11181;51.002;4.356;2024-02-16T08:43:18;15.40;99.90
22035;DHT22;11181;51.002;4.356;2024-02-16T08:45:45;15.40;99.90
22035;DHT22;11181;51.002;4.356;2024-02-16T08:48:13;15.40;99.90
22035;DHT22;11181;51.002;4.356;2024-02-16T08:50:40;15.40;99.90
22035;DHT22;11181;51.002;4.356;2024-02-16T08:53:07;15.30;99.90
22035;DHT22;11181;51.002;4.356;2024-02-16T08:55:35;15.40;99.90
22035;DHT22;11181;51.002;4.356;2024-02-16T08:58:02;15.40;99.90
22035;DHT22;11181;51.002;4.356;2024-02-16T09:00:31;15.40;99.90
22035;DHT22;11181;51.002;4.356;2024-02-16T09:02:58;15.30;99.90
22035;DHT22;11181;51.002;4.356;2024-02-16T09:05:28;15.30;99.90
22035;DHT22;11181;51.002;4.356;2024-02-16T09:07:55;15.30;99.90
22035;DHT22;11181;51.002;4.356;2024-02-16T09:10:22;15.30;99.90
22035;DHT22;11181;51.002;4.356;2024-02-16T09:12:49;15.30;99.90
22035;DHT22;11181;51.002;4.356;2024-02-16T09:15:17;15.40;99.90
22035;DHT22;11181;51.002;4.356;2024-02-16T09:17:45;15.40;99.90
22035;DHT22;11181;51.002;4.356;2024-02-16T09:20:12;15.50;99.90
22035;DHT22;11181;51.002;4.356;2024-02-16T09:22:40;15.40;99.90
22035;DHT22;11181;51.002;4.356;2024-02-16T09:25:07;15.40;99.90
22035;DHT22;11181;51.002;4.356;2024-02-16T09:27:34;15.40;99.90
22035;DHT22;11181;51.002;4.356;2024-02-16T09:30:06;15.40;99.90
22035;DHT22;11181;51.002;4.356;2024-02-16T09:32:36;15.40;99.90
22035;DHT22;11181;51.002;4.356;2024-02-16T09:35:05;15.30;99.90
22035;DHT22;11181;51.002;4.356;2024-02-16T09:37:32;15.30;99.90
22035;DHT22;11181;51.002;4.356;2024-02-16T09:39:59;15.20;99.90
22035;DHT22;11181;51.002;4.356;2024-02-16T09:42:25;15.10;99.90
22035;DHT22;11181;51.002;4.356;2024-02-16T09:44:54;15.10;99.90
22035;DHT22;11181;51.002;4.356;2024-02-16T09:47:22;15.10;99.90
22035;DHT22;11181;51.002;4.356;2024-02-16T09:49:51;15.00;99.90
22035;DHT22;11181;51.002;4.356;2024-02-16T09:52:20;14.90;99.90
22035;DHT22;11181;51.002;4.356;2024-02-16T09:54:47;15.10;99.90
22035;DHT22;11181;51.002;4.356;2024-02-16T09:57:16;15.10;99.90
22035;DHT22;11181;51.002;4.356;2024-02-16T09:59:44;15.20;99.90
22035;DHT22;11181;51.002;4.356;2024-02-16T10:02:11;15.20;99.90
22035;DHT22;11181;51.002;4.356;2024-02-16T10:04:38;15.10;99.90
22035;DHT22;11181;51.002;4.356;2024-02-16T10:07:05;15.20;99.90
22035;DHT22;11181;51.002;4.356;2024-02-16T10:09:33;15.20;99.90
22035;DHT22;11181;51.002;4.356;2024-02-16T10:12:00;15.20;99.90
22035;DHT22;11181;51.002;4.356;2024-02-16T10:14:27;15.20;99.90
22035;DHT22;11181;51.002;4.356;2024-02-16T10:17:01;15.20;99.90
22035;DHT22;11181;51.002;4.356;2024-02-16T10:19:29;15.30;99.90
22035;DHT22;11181;51.002;4.356;2024-02-16T10:22:07;15.30;99.90
22035;DHT22;11181;51.002;4.356;2024-02-16T10:24:35;15.30;99.90
22035;DHT22;11181;51.002;4.356;2024-02-16T10:27:04;15.30;99.90
22035;DHT22;11181;51.002;4.356;2024-02-16T10:29:32;15.30;99.90
22035;DHT22;11181;51.002;4.356;2024-02-16T10:32:00;15.30;99.90
22035;DHT22;11181;51.002;4.356;2024-02-16T10:34:28;15.30;99.90
22035;DHT22;11181;51.002;4.356;2024-02-16T10:36:57;15.30;99.90
22035;DHT22;11181;51.002;4.356;2024-02-16T10:39:25;15.40;99.90
22035;DHT22;11181;51.002;4.356;2024-02-16T10:41:56;15.40;99.90
22035;DHT22;11181;51.002;4.356;2024-02-16T10:44:24;15.30;99.90
22035;DHT22;11181;51.002;4.356;2024-02-16T10:46:51;15.30;99.90
22035;DHT22;11181;51.002;4.356;2024-02-16T10:49:18;15.20;99.90
22035;DHT22;11181;51.002;4.356;2024-02-16T10:51:48;15.20;99.90
22035;DHT22;11181;51.002;4.356;2024-02-16T10:54:19;15.20;99.90
22035;DHT22;11181;51.002;4.356;2024-02-16T10:56:49;15.20;99.90
22035;DHT22;11181;51.002;4.356;2024-02-16T10:59:17;15.20;99.90
22035;DHT22;11181;51.002;4.356;2024-02-16T11:01:45;15.20;99.90
22035;DHT22;11181;51.002;4.356;2024-02-16T11:04:13;15.20;99.90
22035;DHT22;11181;51.002;4.356;2024-02-16T11:06:47;15.20;99.90
22035;DHT22;11181;51.002;4.356;2024-02-16T11:09:26;15.10;99.90
22035;DHT22;11181;51.002;4.356;2024-02-16T11:11:54;15.10;99.90
22035;DHT22;11181;51.002;4.356;2024-02-16T11:14:22;15.10;99.90
22035;DHT22;11181;51.002;4.356;2024-02-16T11:16:54;15.00;99.90
22035;DHT22;11181;51.002;4.356;2024-02-16T11:19:22;15.00;99.90
22035;DHT22;11181;51.002;4.356;2024-02-16T11:21:56;14.90;99.90
22035;DHT22;11181;51.002;4.356;2024-02-16T11:24:30;14.90;99.90
22035;DHT22;11181;51.002;4.356;2024-02-16T11:26:58;14.90;99.90
22035;DHT22;11181;51.002;4.356;2024-02-16T11:29:31;14.80;99.90
22035;DHT22;11181;51.002;4.356;2024-02-16T11:31:59;14.70;99.90
22035;DHT22;11181;51.002;4.356;2024-02-16T11:34:27;14.60;99.90
22035;DHT22;11181;51.002;4.356;2024-02-16T11:36:54;14.50;99.90
22035;DHT22;11181;51.002;4.356;2024-02-16T11:39:21;14.50;99.90
22035;DHT22;11181;51.002;4.356;2024-02-16T11:41:58;14.50;99.90
22035;DHT22;11181;51.002;4.356;2024-02-16T11:44:25;14.50;99.90
22035;DHT22;11181;51.002;4.356;2024-02-16T11:46:55;14.60;99.90
22035;DHT22;11181;51.002;4.356;2024-02-16T11:49:22;14.60;99.90
22035;DHT22;11181;51.002;4.356;2024-02-16T11:51:49;14.50;99.90
22035;DHT22;11181;51.002;4.356;2024-02-16T11:54:16;14.50;99.90
22035;DHT22;11181;51.002;4.356;2024-02-16T11:56:43;14.50;99.90
22035;DHT22;11181;51.002;4.356;2024-02-16T11:59:12;14.40;99.90
22035;DHT22;11181;51.002;4.356;2024-02-16T12:01:49;14.40;99.90
22035;DHT22;11181;51.002;4.356;2024-02-16T12:04:22;14.40;99.90
22035;DHT22;11181;51.002;4.356;2024-02-16T12:06:51;14.30;99.90
22035;DHT22;11181;51.002;4.356;2024-02-16T12:09:19;14.40;99.90
22035;DHT22;11181;51.002;4.356;2024-02-16T12:11:47;14.40;99.90
22035;DHT22;11181;51.002;4.356;2024-02-16T12:14:15;14.40;99.90
22035;DHT22;11181;51.002;4.356;2024-02-16T12:16:42;14.40;99.90
22035;DHT22;11181;51.002;4.356;2024-02-16T12:19:09;14.40;99.90
22035;DHT22;11181;51.002;4.356;2024-02-16T12:21:40;14.30;99.90
22035;DHT22;11181;51.002;4.356;2024-02-16T12:24:07;14.30;99.90
22035;DHT22;11181;51.002;4.356;2024-02-16T12:26:34;14.20;99.90
22035;DHT22;11181;51.002;4.356;2024-02-16T12:29:01;14.20;99.90
22035;DHT22;11181;51.002;4.356;2024-02-16T12:31:30;14.30;99.90
22035;DHT22;11181;51.002;4.356;2024-02-16T12:33:57;14.40;99.90
22035;DHT22;11181;51.002;4.356;2024-02-16T12:36:24;14.40;99.90
22035;DHT22;11181;51.002;4.356;2024-02-16T12:38:53;14.50;99.90
22035;DHT22;11181;51.002;4.356;2024-02-16T12:41:20;14.40;99.90
22035;DHT22;11181;51.002;4.356;2024-02-16T12:43:48;14.40;99.90
22035;DHT22;11181;51.002;4.356;2024-02-16T12:46:15;14.40;99.90
22035;DHT22;11181;51.002;4.356;2024-02-16T12:48:42;14.40;99.90
22035;DHT22;11181;51.002;4.356;2024-02-16T12:51:09;14.40;99.90
22035;DHT22;11181;51.002;4.356;2024-02-16T12:53:36;14.50;99.90
22035;DHT22;11181;51.002;4.356;2024-02-16T12:56:07;14.50;99.90
22035;DHT22;11181;51.002;4.356;2024-02-16T12:58:35;14.50;99.90
22035;DHT22;11181;51.002;4.356;2024-02-16T13:01:02;14.70;99.90
22035;DHT22;11181;51.002;4.356;2024-02-16T13:03:33;14.80;99.90
22035;DHT22;11181;51.002;4.356;2024-02-16T13:06:00;14.80;99.90
22035;DHT22;11181;51.002;4.356;2024-02-16T13:08:27;14.90;99.90
22035;DHT22;11181;51.002;4.356;2024-02-16T13:10:55;14.90;99.90
22035;DHT22;11181;51.002;4.356;2024-02-16T13:13:23;14.90;99.90
22035;DHT22;11181;51.002;4.356;2024-02-16T13:15:51;14.90;99.90
22035;DHT22;11181;51.002;4.356;2024-02-16T13:18:18;14.90;99.90
22035;DHT22;11181;51.002;4.356;2024-02-16T13:20:45;14.90;99.90
22035;DHT22;11181;51.002;4.356;2024-02-16T13:23:12;14.90;99.90
22035;DHT22;11181;51.002;4.356;2024-02-16T13:25:39;14.90;99.90
22035;DHT22;11181;51.002;4.356;2024-02-16T13:28:06;14.90;99.90
22035;DHT22;11181;51.002;4.356;2024-02-16T13:30:35;15.10;99.90
22035;DHT22;11181;51.002;4.356;2024-02-16T13:33:03;15.00;99.90
22035;DHT22;11181;51.002;4.356;2024-02-16T13:35:30;15.10;99.90
22035;DHT22;11181;51.002;4.356;2024-02-16T13:37:57;14.90;99.90
22035;DHT22;11181;51.002;4.356;2024-02-16T13:40:24;15.00;99.90
22035;DHT22;11181;51.002;4.356;2024-02-16T13:42:51;15.10;99.90
22035;DHT22;11181;51.002;4.356;2024-02-16T13:45:21;15.10;99.90
22035;DHT22;11181;51.002;4.356;2024-02-16T13:47:52;15.20;99.90
22035;DHT22;11181;51.002;4.356;2024-02-16T13:50:19;15.30;99.90
22035;DHT22;11181;51.002;4.356;2024-02-16T13:52:46;15.30;99.90
22035;DHT22;11181;51.002;4.356;2024-02-16T13:55:13;15.20;99.90
22035;DHT22;11181;51.002;4.356;2024-02-16T13:57:40;15.10;99.90
22035;DHT22;11181;51.002;4.356;2024-02-16T14:00:07;15.20;99.90
22035;DHT22;11181;51.002;4.356;2024-02-16T14:02:34;15.30;99.90
22035;DHT22;11181;51.002;4.356;2024-02-16T14:05:03;15.30;99.90
22035;DHT22;11181;51.002;4.356;2024-02-16T14:07:30;15.40;99.90
22035;DHT22;11181;51.002;4.356;2024-02-16T14:09:58;15.50;99.90
22035;DHT22;11181;51.002;4.356;2024-02-16T14:12:25;15.70;99.90
22035;DHT22;11181;51.002;4.356;2024-02-16T14:14:52;15.70;99.90
22035;DHT22;11181;51.002;4.356;2024-02-16T14:17:19;15.80;99.90
22035;DHT22;11181;51.002;4.356;2024-02-16T14:19:46;16.00;99.90
22035;DHT22;11181;51.002;4.356;2024-02-16T14:22:14;16.00;99.90
22035;DHT22;11181;51.002;4.356;2024-02-16T14:24:41;15.90;99.90
22035;DHT22;11181;51.002;4.356;2024-02-16T14:27:08;15.90;99.90
22035;DHT22;11181;51.002;4.356;2024-02-16T14:29:35;15.90;99.90
22035;DHT22;11181;51.002;4.356;2024-02-16T14:32:02;15.90;99.90
22035;DHT22;11181;51.002;4.356;2024-02-16T14:34:29;16.00;99.90
22035;DHT22;11181;51.002;4.356;2024-02-16T14:36:56;16.10;99.90
22035;DHT22;11181;51.002;4.356;2024-02-16T14:39:24;16.20;99.90
22035;DHT22;11181;51.002;4.356;2024-02-16T14:41:51;16.10;99.90
22035;DHT22;11181;51.002;4.356;2024-02-16T14:44:18;16.00;99.90
22035;DHT22;11181;51.002;4.356;2024-02-16T14:46:46;16.00;99.90
22035;DHT22;11181;51.002;4.356;2024-02-16T14:49:13;16.00;99.90
22035;DHT22;11181;51.002;4.356;2024-02-16T14:51:46;16.00;99.90
22035;DHT22;11181;51.002;4.356;2024-02-16T14:54:13;15.90;99.90
22035;DHT22;11181;51.002;4.356;2024-02-16T14:56:41;16.00;99.90
22035;DHT22;11181;51.002;4.356;2024-02-16T14:59:08;15.90;99.90
22035;DHT22;11181;51.002;4.356;2024-02-16T15:01:36;16.00;99.90
22035;DHT22;11181;51.002;4.356;2024-02-16T15:04:03;16.00;99.90
22035;DHT22;11181;51.002;4.356;2024-02-16T15:06:30;16.20;99.90
22035;DHT22;11181;51.002;4.356;2024-02-16T15:08:58;16.40;99.90
22035;DHT22;11181;51.002;4.356;2024-02-16T15:11:25;16.50;99.90
22035;DHT22;11181;51.002;4.356;2024-02-16T15:13:54;16.40;99.90
22035;DHT22;11181;51.002;4.356;2024-02-16T15:16:21;16.40;99.90
22035;DHT22;11181;51.002;4.356;2024-02-16T15:18:48;16.20;99.90
22035;DHT22;11181;51.002;4.356;2024-02-16T15:21:15;16.20;99.90
22035;DHT22;11181;51.002;4.356;2024-02-16T15:23:42;16.20;99.90
22035;DHT22;11181;51.002;4.356;2024-02-16T15:26:10;16.30;99.90
22035;DHT22;11181;51.002;4.356;2024-02-16T15:28:37;16.20;99.90
22035;DHT22;11181;51.002;4.356;2024-02-16T15:31:06;16.00;99.90
22035;DHT22;11181;51.002;4.356;2024-02-16T15:33:33;15.90;99.90